sensor_id;sensor_type;location;lat;lon;timestamp;P1;durP1;ratioP1;P2;durP2;ratioP2
18136;SDS011;9194;42.632;23.298;2022-07-21T00:00:43;3.38;;;2.03;;
18136;SDS011;9194;42.632;23.298;2022-07-21T00:11:53;2.28;;;1.85;;
18136;SDS011;9194;42.632;23.298;2022-07-21T00:16:54;2.40;;;1.98;;
18136;SDS011;9194;42.632;23.298;2022-07-21T00:21:56;1.88;;;1.77;;
18136;SDS011;9194;42.632;23.298;2022-07-21T00:26:57;1.92;;;1.83;;
18136;SDS011;9194;42.632;23.298;2022-07-21T00:31:58;1.88;;;1.77;;
18136;SDS011;9194;42.632;23.298;2022-07-21T00:37:01;2.97;;;1.85;;
18136;SDS011;9194;42.632;23.298;2022-07-21T00:42:02;2.17;;;1.98;;
18136;SDS011;9194;42.632;23.298;2022-07-21T00:47:04;3.22;;;1.88;;
18136;SDS011;9194;42.632;23.298;2022-07-21T00:52:05;1.88;;;1.77;;
18136;SDS011;9194;42.632;23.298;2022-07-21T00:57:07;2.33;;;1.70;;
18136;SDS011;9194;42.632;23.298;2022-07-21T01:02:09;4.50;;;2.05;;
18136;SDS011;9194;42.632;23.298;2022-07-21T01:07:11;4.07;;;1.75;;
18136;SDS011;9194;42.632;23.298;2022-07-21T01:12:12;2.60;;;2.22;;
18136;SDS011;9194;42.632;23.298;2022-07-21T01:17:17;2.17;;;2.08;;
18136;SDS011;9194;42.632;23.298;2022-07-21T01:22:18;2.95;;;2.20;;
18136;SDS011;9194;42.632;23.298;2022-07-21T01:27:23;2.10;;;2.00;;
18136;SDS011;9194;42.632;23.298;2022-07-21T01:32:26;2.92;;;2.10;;
18136;SDS011;9194;42.632;23.298;2022-07-21T01:37:28;2.95;;;1.80;;
18136;SDS011;9194;42.632;23.298;2022-07-21T01:42:31;3.17;;;1.83;;
18136;SDS011;9194;42.632;23.298;2022-07-21T01:47:33;2.00;;;1.90;;
18136;SDS011;9194;42.632;23.298;2022-07-21T01:52:35;3.65;;;2.08;;
18136;SDS011;9194;42.632;23.298;2022-07-21T01:57:37;1.90;;;1.80;;
18136;SDS011;9194;42.632;23.298;2022-07-21T02:02:38;3.55;;;1.75;;
18136;SDS011;9194;42.632;23.298;2022-07-21T02:07:39;2.08;;;1.83;;
18136;SDS011;9194;42.632;23.298;2022-07-21T02:12:41;2.08;;;1.95;;
18136;SDS011;9194;42.632;23.298;2022-07-21T02:17:42;1.80;;;1.65;;
18136;SDS011;9194;42.632;23.298;2022-07-21T02:22:43;1.92;;;1.83;;
18136;SDS011;9194;42.632;23.298;2022-07-21T02:27:46;2.00;;;1.90;;
18136;SDS011;9194;42.632;23.298;2022-07-21T02:32:47;4.85;;;2.10;;
18136;SDS011;9194;42.632;23.298;2022-07-21T02:37:49;2.28;;;2.08;;
18136;SDS011;9194;42.632;23.298;2022-07-21T02:42:50;2.08;;;1.80;;
18136;SDS011;9194;42.632;23.298;2022-07-21T02:47:59;1.92;;;1.83;;
18136;SDS011;9194;42.632;23.298;2022-07-21T02:53:11;1.80;;;1.70;;
18136;SDS011;9194;42.632;23.298;2022-07-21T02:58:17;2.00;;;1.90;;
18136;SDS011;9194;42.632;23.298;2022-07-21T03:03:20;2.53;;;2.13;;
18136;SDS011;9194;42.632;23.298;2022-07-21T03:08:23;2.75;;;2.25;;
18136;SDS011;9194;42.632;23.298;2022-07-21T03:13:26;2.60;;;2.40;;
18136;SDS011;9194;42.632;23.298;2022-07-21T03:18:27;2.20;;;2.00;;
18136;SDS011;9194;42.632;23.298;2022-07-21T03:23:28;3.88;;;2.05;;
18136;SDS011;9194;42.632;23.298;2022-07-21T03:28:30;3.15;;;2.15;;
18136;SDS011;9194;42.632;23.298;2022-07-21T03:33:31;2.58;;;2.20;;
18136;SDS011;9194;42.632;23.298;2022-07-21T03:38:34;4.72;;;2.10;;
18136;SDS011;9194;42.632;23.298;2022-07-21T03:43:35;3.63;;;2.40;;
18136;SDS011;9194;42.632;23.298;2022-07-21T03:48:37;3.33;;;2.42;;
18136;SDS011;9194;42.632;23.298;2022-07-21T03:53:38;1.90;;;1.80;;
18136;SDS011;9194;42.632;23.298;2022-07-21T03:58:39;9.23;;;2.55;;
18136;SDS011;9194;42.632;23.298;2022-07-21T04:03:40;1.65;;;1.55;;
18136;SDS011;9194;42.632;23.298;2022-07-21T04:08:42;2.30;;;2.17;;
18136;SDS011;9194;42.632;23.298;2022-07-21T04:13:43;3.20;;;2.13;;
18136;SDS011;9194;42.632;23.298;2022-07-21T04:18:50;2.53;;;2.33;;
18136;SDS011;9194;42.632;23.298;2022-07-21T04:23:51;2.53;;;2.42;;
18136;SDS011;9194;42.632;23.298;2022-07-21T04:28:54;2.42;;;1.90;;
18136;SDS011;9194;42.632;23.298;2022-07-21T04:33:55;3.47;;;2.30;;
18136;SDS011;9194;42.632;23.298;2022-07-21T04:38:57;2.97;;;2.20;;
18136;SDS011;9194;42.632;23.298;2022-07-21T04:43:59;8.93;;;2.20;;
18136;SDS011;9194;42.632;23.298;2022-07-21T04:49:01;2.85;;;2.65;;
18136;SDS011;9194;42.632;23.298;2022-07-21T04:54:02;4.38;;;2.78;;
18136;SDS011;9194;42.632;23.298;2022-07-21T04:59:08;4.18;;;2.80;;
18136;SDS011;9194;42.632;23.298;2022-07-21T05:04:10;2.92;;;2.58;;
18136;SDS011;9194;42.632;23.298;2022-07-21T05:09:11;2.97;;;2.72;;
18136;SDS011;9194;42.632;23.298;2022-07-21T05:14:12;3.40;;;2.90;;
18136;SDS011;9194;42.632;23.298;2022-07-21T05:19:14;4.32;;;2.65;;
18136;SDS011;9194;42.632;23.298;2022-07-21T05:24:15;5.38;;;2.97;;
18136;SDS011;9194;42.632;23.298;2022-07-21T05:29:16;6.60;;;3.40;;
18136;SDS011;9194;42.632;23.298;2022-07-21T05:34:17;9.93;;;3.20;;
18136;SDS011;9194;42.632;23.298;2022-07-21T05:39:19;4.45;;;2.95;;
18136;SDS011;9194;42.632;23.298;2022-07-21T05:44:20;6.65;;;3.47;;
18136;SDS011;9194;42.632;23.298;2022-07-21T05:49:22;11.50;;;3.50;;
18136;SDS011;9194;42.632;23.298;2022-07-21T05:54:23;4.30;;;3.65;;
18136;SDS011;9194;42.632;23.298;2022-07-21T05:59:24;8.25;;;4.15;;
18136;SDS011;9194;42.632;23.298;2022-07-21T06:04:26;13.45;;;4.35;;
18136;SDS011;9194;42.632;23.298;2022-07-21T06:09:27;11.00;;;4.20;;
18136;SDS011;9194;42.632;23.298;2022-07-21T06:14:28;18.33;;;3.72;;
18136;SDS011;9194;42.632;23.298;2022-07-21T06:19:30;14.55;;;3.97;;
18136;SDS011;9194;42.632;23.298;2022-07-21T06:24:34;19.90;;;4.20;;
18136;SDS011;9194;42.632;23.298;2022-07-21T06:29:35;13.18;;;3.53;;
18136;SDS011;9194;42.632;23.298;2022-07-21T06:34:36;17.17;;;4.55;;
18136;SDS011;9194;42.632;23.298;2022-07-21T06:39:38;12.13;;;3.42;;
18136;SDS011;9194;42.632;23.298;2022-07-21T06:44:42;14.57;;;4.68;;
18136;SDS011;9194;42.632;23.298;2022-07-21T06:49:43;12.30;;;3.20;;
18136;SDS011;9194;42.632;23.298;2022-07-21T06:54:49;15.43;;;3.60;;
18136;SDS011;9194;42.632;23.298;2022-07-21T06:59:50;11.85;;;3.90;;
18136;SDS011;9194;42.632;23.298;2022-07-21T07:04:51;18.65;;;3.55;;
18136;SDS011;9194;42.632;23.298;2022-07-21T07:09:53;19.92;;;3.53;;
18136;SDS011;9194;42.632;23.298;2022-07-21T07:14:54;11.40;;;3.38;;
18136;SDS011;9194;42.632;23.298;2022-07-21T07:19:55;28.10;;;3.30;;
18136;SDS011;9194;42.632;23.298;2022-07-21T07:24:57;8.18;;;3.20;;
18136;SDS011;9194;42.632;23.298;2022-07-21T07:29:58;8.98;;;3.03;;
18136;SDS011;9194;42.632;23.298;2022-07-21T07:35:02;4.45;;;2.53;;
18136;SDS011;9194;42.632;23.298;2022-07-21T07:40:08;7.60;;;2.60;;
18136;SDS011;9194;42.632;23.298;2022-07-21T07:45:12;8.65;;;2.70;;
18136;SDS011;9194;42.632;23.298;2022-07-21T07:50:14;2.70;;;1.90;;
18136;SDS011;9194;42.632;23.298;2022-07-21T07:55:16;2.50;;;2.15;;
18136;SDS011;9194;42.632;23.298;2022-07-21T08:00:18;3.00;;;2.38;;
18136;SDS011;9194;42.632;23.298;2022-07-21T08:05:23;3.88;;;2.05;;
18136;SDS011;9194;42.632;23.298;2022-07-21T08:10:24;7.43;;;2.67;;
18136;SDS011;9194;42.632;23.298;2022-07-21T08:15:25;9.70;;;2.30;;
18136;SDS011;9194;42.632;23.298;2022-07-21T08:20:27;6.72;;;2.08;;
18136;SDS011;9194;42.632;23.298;2022-07-21T08:25:28;3.20;;;2.42;;
18136;SDS011;9194;42.632;23.298;2022-07-21T08:30:30;4.40;;;2.35;;
18136;SDS011;9194;42.632;23.298;2022-07-21T08:35:31;6.78;;;2.38;;
18136;SDS011;9194;42.632;23.298;2022-07-21T08:40:35;11.77;;;2.20;;
18136;SDS011;9194;42.632;23.298;2022-07-21T08:45:40;2.33;;;2.13;;
18136;SDS011;9194;42.632;23.298;2022-07-21T08:50:42;2.67;;;2.17;;
18136;SDS011;9194;42.632;23.298;2022-07-21T08:55:47;4.18;;;2.35;;
18136;SDS011;9194;42.632;23.298;2022-07-21T09:00:49;7.38;;;2.33;;
18136;SDS011;9194;42.632;23.298;2022-07-21T09:11:10;3.63;;;2.38;;
18136;SDS011;9194;42.632;23.298;2022-07-21T09:16:12;3.08;;;2.20;;
18136;SDS011;9194;42.632;23.298;2022-07-21T09:21:14;4.15;;;2.33;;
18136;SDS011;9194;42.632;23.298;2022-07-21T09:26:17;3.95;;;2.10;;
18136;SDS011;9194;42.632;23.298;2022-07-21T09:31:18;2.60;;;2.20;;
18136;SDS011;9194;42.632;23.298;2022-07-21T09:36:19;2.50;;;2.30;;
18136;SDS011;9194;42.632;23.298;2022-07-21T09:41:23;3.20;;;2.30;;
18136;SDS011;9194;42.632;23.298;2022-07-21T09:46:30;2.55;;;2.00;;
18136;SDS011;9194;42.632;23.298;2022-07-21T09:51:32;2.65;;;2.45;;
18136;SDS011;9194;42.632;23.298;2022-07-21T09:56:36;5.30;;;2.60;;
18136;SDS011;9194;42.632;23.298;2022-07-21T10:01:41;2.70;;;2.28;;
18136;SDS011;9194;42.632;23.298;2022-07-21T10:06:43;4.72;;;2.00;;
18136;SDS011;9194;42.632;23.298;2022-07-21T10:11:47;7.13;;;2.30;;
18136;SDS011;9194;42.632;23.298;2022-07-21T10:16:48;2.40;;;2.20;;
18136;SDS011;9194;42.632;23.298;2022-07-21T10:27:10;2.45;;;2.25;;
18136;SDS011;9194;42.632;23.298;2022-07-21T10:32:20;5.95;;;2.35;;
18136;SDS011;9194;42.632;23.298;2022-07-21T10:42:40;2.13;;;1.92;;
18136;SDS011;9194;42.632;23.298;2022-07-21T10:47:41;5.63;;;2.45;;
18136;SDS011;9194;42.632;23.298;2022-07-21T10:57:44;2.92;;;1.83;;
18136;SDS011;9194;42.632;23.298;2022-07-21T11:02:47;1.98;;;1.80;;
18136;SDS011;9194;42.632;23.298;2022-07-21T11:13:18;3.30;;;1.95;;
18136;SDS011;9194;42.632;23.298;2022-07-21T11:18:23;6.05;;;1.90;;
18136;SDS011;9194;42.632;23.298;2022-07-21T11:23:34;1.92;;;1.83;;
18136;SDS011;9194;42.632;23.298;2022-07-21T11:29:06;4.97;;;2.10;;
18136;SDS011;9194;42.632;23.298;2022-07-21T11:34:07;2.30;;;2.10;;
18136;SDS011;9194;42.632;23.298;2022-07-21T11:39:14;2.17;;;1.98;;
18136;SDS011;9194;42.632;23.298;2022-07-21T11:44:22;2.10;;;1.90;;
18136;SDS011;9194;42.632;23.298;2022-07-21T11:49:26;5.13;;;2.10;;
18136;SDS011;9194;42.632;23.298;2022-07-21T11:54:35;5.43;;;2.55;;
18136;SDS011;9194;42.632;23.298;2022-07-21T11:59:38;4.25;;;2.45;;
18136;SDS011;9194;42.632;23.298;2022-07-21T12:04:44;3.53;;;2.47;;
18136;SDS011;9194;42.632;23.298;2022-07-21T12:09:49;3.53;;;2.00;;
18136;SDS011;9194;42.632;23.298;2022-07-21T12:14:55;3.85;;;2.08;;
18136;SDS011;9194;42.632;23.298;2022-07-21T12:19:59;2.55;;;2.35;;
18136;SDS011;9194;42.632;23.298;2022-07-21T12:25:01;3.20;;;2.22;;
18136;SDS011;9194;42.632;23.298;2022-07-21T12:30:04;7.07;;;2.30;;
18136;SDS011;9194;42.632;23.298;2022-07-21T12:35:15;7.70;;;2.70;;
18136;SDS011;9194;42.632;23.298;2022-07-21T12:40:21;2.33;;;2.13;;
18136;SDS011;9194;42.632;23.298;2022-07-21T12:45:23;8.38;;;2.83;;
18136;SDS011;9194;42.632;23.298;2022-07-21T12:50:24;7.25;;;2.50;;
18136;SDS011;9194;42.632;23.298;2022-07-21T12:55:26;2.45;;;2.25;;
18136;SDS011;9194;42.632;23.298;2022-07-21T13:00:27;4.18;;;2.00;;
18136;SDS011;9194;42.632;23.298;2022-07-21T13:05:28;2.63;;;1.85;;
18136;SDS011;9194;42.632;23.298;2022-07-21T13:10:30;3.30;;;2.25;;
18136;SDS011;9194;42.632;23.298;2022-07-21T13:15:31;2.65;;;2.45;;
18136;SDS011;9194;42.632;23.298;2022-07-21T13:20:35;3.67;;;2.50;;
18136;SDS011;9194;42.632;23.298;2022-07-21T13:25:36;5.35;;;2.10;;
18136;SDS011;9194;42.632;23.298;2022-07-21T13:30:38;2.95;;;2.05;;
18136;SDS011;9194;42.632;23.298;2022-07-21T13:35:39;3.03;;;2.35;;
18136;SDS011;9194;42.632;23.298;2022-07-21T13:40:41;5.93;;;2.40;;
18136;SDS011;9194;42.632;23.298;2022-07-21T13:45:42;3.78;;;2.10;;
18136;SDS011;9194;42.632;23.298;2022-07-21T13:50:44;3.08;;;2.40;;
18136;SDS011;9194;42.632;23.298;2022-07-21T13:55:45;2.30;;;2.20;;
18136;SDS011;9194;42.632;23.298;2022-07-21T14:00:47;4.75;;;2.30;;
18136;SDS011;9194;42.632;23.298;2022-07-21T14:05:48;2.33;;;2.22;;
18136;SDS011;9194;42.632;23.298;2022-07-21T14:10:49;3.30;;;2.33;;
18136;SDS011;9194;42.632;23.298;2022-07-21T14:15:51;2.80;;;1.90;;
18136;SDS011;9194;42.632;23.298;2022-07-21T14:20:52;7.90;;;2.30;;
18136;SDS011;9194;42.632;23.298;2022-07-21T14:25:54;2.13;;;1.92;;
18136;SDS011;9194;42.632;23.298;2022-07-21T14:30:55;3.20;;;2.00;;
18136;SDS011;9194;42.632;23.298;2022-07-21T14:35:57;6.07;;;2.70;;
18136;SDS011;9194;42.632;23.298;2022-07-21T14:40:58;4.10;;;2.20;;
18136;SDS011;9194;42.632;23.298;2022-07-21T14:46:01;2.17;;;2.00;;
18136;SDS011;9194;42.632;23.298;2022-07-21T14:51:03;8.98;;;2.45;;
18136;SDS011;9194;42.632;23.298;2022-07-21T14:56:04;4.28;;;2.35;;
18136;SDS011;9194;42.632;23.298;2022-07-21T15:01:06;5.28;;;2.33;;
18136;SDS011;9194;42.632;23.298;2022-07-21T15:06:07;5.95;;;2.25;;
18136;SDS011;9194;42.632;23.298;2022-07-21T15:11:09;8.98;;;2.30;;
18136;SDS011;9194;42.632;23.298;2022-07-21T15:16:10;3.33;;;2.35;;
18136;SDS011;9194;42.632;23.298;2022-07-21T15:21:12;3.78;;;2.50;;
18136;SDS011;9194;42.632;23.298;2022-07-21T15:26:13;4.03;;;2.03;;
18136;SDS011;9194;42.632;23.298;2022-07-21T15:31:15;4.30;;;2.25;;
18136;SDS011;9194;42.632;23.298;2022-07-21T15:36:16;4.75;;;2.25;;
18136;SDS011;9194;42.632;23.298;2022-07-21T15:41:17;4.85;;;2.15;;
18136;SDS011;9194;42.632;23.298;2022-07-21T15:46:19;7.38;;;2.17;;
18136;SDS011;9194;42.632;23.298;2022-07-21T15:51:20;3.65;;;2.17;;
18136;SDS011;9194;42.632;23.298;2022-07-21T15:56:21;5.30;;;2.30;;
18136;SDS011;9194;42.632;23.298;2022-07-21T16:01:23;13.98;;;2.50;;
18136;SDS011;9194;42.632;23.298;2022-07-21T16:06:24;7.05;;;2.45;;
18136;SDS011;9194;42.632;23.298;2022-07-21T16:11:25;5.85;;;2.90;;
18136;SDS011;9194;42.632;23.298;2022-07-21T16:16:27;5.32;;;2.58;;
18136;SDS011;9194;42.632;23.298;2022-07-21T16:21:30;5.63;;;2.35;;
18136;SDS011;9194;42.632;23.298;2022-07-21T16:26:32;8.68;;;2.45;;
18136;SDS011;9194;42.632;23.298;2022-07-21T16:31:33;4.40;;;2.38;;
18136;SDS011;9194;42.632;23.298;2022-07-21T16:36:36;7.15;;;3.13;;
18136;SDS011;9194;42.632;23.298;2022-07-21T16:41:38;3.15;;;2.10;;
18136;SDS011;9194;42.632;23.298;2022-07-21T16:46:39;6.03;;;2.75;;
18136;SDS011;9194;42.632;23.298;2022-07-21T16:51:41;5.78;;;2.63;;
18136;SDS011;9194;42.632;23.298;2022-07-21T16:56:43;4.57;;;2.75;;
18136;SDS011;9194;42.632;23.298;2022-07-21T17:01:44;5.13;;;2.83;;
18136;SDS011;9194;42.632;23.298;2022-07-21T17:06:46;5.30;;;2.10;;
18136;SDS011;9194;42.632;23.298;2022-07-21T17:11:47;4.35;;;2.65;;
18136;SDS011;9194;42.632;23.298;2022-07-21T17:16:48;8.50;;;2.38;;
18136;SDS011;9194;42.632;23.298;2022-07-21T17:21:53;2.63;;;2.30;;
18136;SDS011;9194;42.632;23.298;2022-07-21T17:26:54;5.35;;;2.85;;
18136;SDS011;9194;42.632;23.298;2022-07-21T17:31:55;5.97;;;2.80;;
18136;SDS011;9194;42.632;23.298;2022-07-21T17:36:57;5.10;;;2.20;;
18136;SDS011;9194;42.632;23.298;2022-07-21T17:47:06;4.38;;;2.60;;
18136;SDS011;9194;42.632;23.298;2022-07-21T17:52:08;4.88;;;2.28;;
18136;SDS011;9194;42.632;23.298;2022-07-21T17:57:09;6.38;;;2.40;;
18136;SDS011;9194;42.632;23.298;2022-07-21T18:02:29;4.85;;;2.53;;
18136;SDS011;9194;42.632;23.298;2022-07-21T18:07:30;5.30;;;2.50;;
18136;SDS011;9194;42.632;23.298;2022-07-21T18:12:32;7.35;;;2.80;;
18136;SDS011;9194;42.632;23.298;2022-07-21T18:17:33;3.13;;;2.20;;
18136;SDS011;9194;42.632;23.298;2022-07-21T18:22:34;4.93;;;2.15;;
18136;SDS011;9194;42.632;23.298;2022-07-21T18:27:36;4.70;;;2.33;;
18136;SDS011;9194;42.632;23.298;2022-07-21T18:32:37;6.00;;;2.65;;
18136;SDS011;9194;42.632;23.298;2022-07-21T18:37:39;5.70;;;2.60;;
18136;SDS011;9194;42.632;23.298;2022-07-21T18:42:41;3.53;;;2.58;;
18136;SDS011;9194;42.632;23.298;2022-07-21T18:47:42;8.60;;;2.75;;
18136;SDS011;9194;42.632;23.298;2022-07-21T18:52:46;4.07;;;2.60;;
18136;SDS011;9194;42.632;23.298;2022-07-21T18:57:47;4.85;;;2.50;;
18136;SDS011;9194;42.632;23.298;2022-07-21T19:02:52;4.72;;;2.78;;
18136;SDS011;9194;42.632;23.298;2022-07-21T19:07:53;7.88;;;2.70;;
18136;SDS011;9194;42.632;23.298;2022-07-21T19:18:57;4.03;;;2.30;;
18136;SDS011;9194;42.632;23.298;2022-07-21T19:23:58;5.38;;;3.05;;
18136;SDS011;9194;42.632;23.298;2022-07-21T19:29:00;4.32;;;2.35;;
18136;SDS011;9194;42.632;23.298;2022-07-21T19:34:01;5.07;;;2.60;;
18136;SDS011;9194;42.632;23.298;2022-07-21T19:39:03;9.25;;;2.88;;
18136;SDS011;9194;42.632;23.298;2022-07-21T19:44:04;5.85;;;2.33;;
18136;SDS011;9194;42.632;23.298;2022-07-21T19:49:06;7.95;;;2.60;;
18136;SDS011;9194;42.632;23.298;2022-07-21T19:54:07;12.50;;;2.55;;
18136;SDS011;9194;42.632;23.298;2022-07-21T19:59:09;4.90;;;2.33;;
18136;SDS011;9194;42.632;23.298;2022-07-21T20:04:11;5.63;;;2.30;;
18136;SDS011;9194;42.632;23.298;2022-07-21T20:09:12;4.53;;;2.55;;
18136;SDS011;9194;42.632;23.298;2022-07-21T20:14:14;5.07;;;2.65;;
18136;SDS011;9194;42.632;23.298;2022-07-21T20:19:16;5.78;;;2.33;;
18136;SDS011;9194;42.632;23.298;2022-07-21T20:24:18;2.90;;;2.08;;
18136;SDS011;9194;42.632;23.298;2022-07-21T20:29:19;8.63;;;2.97;;
18136;SDS011;9194;42.632;23.298;2022-07-21T20:34:21;5.88;;;2.85;;
18136;SDS011;9194;42.632;23.298;2022-07-21T20:39:22;5.93;;;2.72;;
18136;SDS011;9194;42.632;23.298;2022-07-21T20:44:23;9.50;;;2.97;;
18136;SDS011;9194;42.632;23.298;2022-07-21T20:49:25;9.05;;;2.85;;
18136;SDS011;9194;42.632;23.298;2022-07-21T20:54:29;7.50;;;2.55;;
18136;SDS011;9194;42.632;23.298;2022-07-21T20:59:31;6.55;;;2.90;;
18136;SDS011;9194;42.632;23.298;2022-07-21T21:04:32;5.95;;;2.60;;
18136;SDS011;9194;42.632;23.298;2022-07-21T21:09:33;11.90;;;2.90;;
18136;SDS011;9194;42.632;23.298;2022-07-21T21:14:35;5.43;;;2.67;;
18136;SDS011;9194;42.632;23.298;2022-07-21T21:19:36;3.78;;;2.40;;
18136;SDS011;9194;42.632;23.298;2022-07-21T21:24:38;5.25;;;2.60;;
18136;SDS011;9194;42.632;23.298;2022-07-21T21:29:39;5.13;;;2.50;;
18136;SDS011;9194;42.632;23.298;2022-07-21T21:34:40;6.25;;;3.10;;
18136;SDS011;9194;42.632;23.298;2022-07-21T21:39:42;4.72;;;2.58;;
18136;SDS011;9194;42.632;23.298;2022-07-21T21:44:44;4.45;;;2.60;;
18136;SDS011;9194;42.632;23.298;2022-07-21T21:49:45;9.40;;;3.15;;
18136;SDS011;9194;42.632;23.298;2022-07-21T21:54:46;5.68;;;2.70;;
18136;SDS011;9194;42.632;23.298;2022-07-21T21:59:48;4.18;;;2.72;;
18136;SDS011;9194;42.632;23.298;2022-07-21T22:04:49;2.85;;;2.53;;
18136;SDS011;9194;42.632;23.298;2022-07-21T22:09:50;5.90;;;2.80;;
18136;SDS011;9194;42.632;23.298;2022-07-21T22:14:51;11.13;;;2.70;;
18136;SDS011;9194;42.632;23.298;2022-07-21T22:19:53;8.70;;;2.60;;
18136;SDS011;9194;42.632;23.298;2022-07-21T22:24:55;6.13;;;2.95;;
18136;SDS011;9194;42.632;23.298;2022-07-21T22:29:56;9.65;;;3.05;;
18136;SDS011;9194;42.632;23.298;2022-07-21T22:34:58;4.35;;;2.80;;
18136;SDS011;9194;42.632;23.298;2022-07-21T22:40:00;6.63;;;3.10;;
18136;SDS011;9194;42.632;23.298;2022-07-21T22:45:01;5.88;;;3.10;;
18136;SDS011;9194;42.632;23.298;2022-07-21T22:50:03;12.77;;;3.53;;
18136;SDS011;9194;42.632;23.298;2022-07-21T22:55:05;4.25;;;2.92;;
18136;SDS011;9194;42.632;23.298;2022-07-21T23:00:07;10.82;;;3.08;;
18136;SDS011;9194;42.632;23.298;2022-07-21T23:05:08;5.55;;;3.00;;
18136;SDS011;9194;42.632;23.298;2022-07-21T23:10:10;12.27;;;3.00;;
18136;SDS011;9194;42.632;23.298;2022-07-21T23:15:12;4.43;;;2.95;;
18136;SDS011;9194;42.632;23.298;2022-07-21T23:20:13;6.68;;;2.80;;
18136;SDS011;9194;42.632;23.298;2022-07-21T23:25:14;9.60;;;3.08;;
18136;SDS011;9194;42.632;23.298;2022-07-21T23:30:16;10.65;;;3.20;;
18136;SDS011;9194;42.632;23.298;2022-07-21T23:35:17;6.05;;;3.25;;
18136;SDS011;9194;42.632;23.298;2022-07-21T23:40:19;10.10;;;3.30;;
18136;SDS011;9194;42.632;23.298;2022-07-21T23:45:21;13.20;;;3.88;;
18136;SDS011;9194;42.632;23.298;2022-07-21T23:50:22;9.10;;;3.38;;
18136;SDS011;9194;42.632;23.298;2022-07-21T23:55:24;6.63;;;3.28;;
